Time;durP1;ratioP1;P1;durP2;ratioP2;P2;SDS_P1;SDS_P2;PMS_P1;PMS_P2;Temp;Humidity;BMP_temperature;BMP_pressure;BME280_temperature;BME280_humidity;BME280_pressure;Samples;Min_cycle;Max_cycle;Signal;HPM_P1;HPM_P2
2022/05/21 00:00:22;;;;;;;33.13;3.77;;;;;;;25.69;54.76;99101.19;7308945;19;131506;-38
2022/05/21 00:02:49;;;;;;;21.97;2.60;;;;;;;25.66;54.79;99096.28;7311748;19;130005;-38
2022/05/21 00:05:16;;;;;;;28.15;3.40;;;;;;;25.60;54.58;99087.25;7310301;19;129346;-38
2022/05/21 00:07:42;;;;;;;25.85;3.00;;;;;;;25.66;54.89;99101.53;7306979;19;129866;-37
2022/05/21 00:10:09;;;;;;;43.60;3.97;;;;;;;25.68;54.85;99107.47;7309935;19;129515;-38
2022/05/21 00:12:35;;;;;;;23.30;3.00;;;;;;;25.66;54.32;99101.53;7308501;19;129718;-37
2022/05/21 00:15:01;;;;;;;26.30;2.70;;;;;;;25.68;54.50;99124.06;7309392;19;129385;-38
2022/05/21 00:17:26;;;;;;;24.10;2.83;;;;;;;25.61;54.74;99125.78;7307855;19;130147;-37
2022/05/21 00:19:52;;;;;;;19.63;2.38;;;;;;;25.67;54.99;99129.50;7309560;19;158669;-38
2022/05/21 00:22:17;;;;;;;23.95;2.83;;;;;;;25.66;54.10;99133.13;7308426;19;158623;-37
2022/05/21 00:24:43;;;;;;;13.55;2.05;;;;;;;25.66;54.56;99127.88;7310573;19;131152;-37
2022/05/21 00:27:08;;;;;;;23.13;3.00;;;;;;;25.61;55.19;99135.47;7306704;19;154017;-38
2022/05/21 00:29:34;;;;;;;14.70;2.07;;;;;;;25.67;54.25;99143.50;7308286;19;158693;-38
2022/05/21 00:32:00;;;;;;;22.17;2.47;;;;;;;25.68;54.96;99136.41;7310235;19;131285;-38
2022/05/21 00:34:25;;;;;;;40.60;4.17;;;;;;;25.69;54.45;99144.13;7309821;19;129729;-37
2022/05/21 00:36:51;;;;;;;25.93;2.87;;;;;;;25.67;53.36;99155.81;7305855;19;154169;-38
2022/05/21 00:39:17;;;;;;;21.70;2.73;;;;;;;25.60;54.54;99144.38;7310124;19;129549;-38
2022/05/21 00:41:43;;;;;;;31.67;3.40;;;;;;;25.65;54.66;99173.63;7307879;19;159343;-38
2022/05/21 00:44:08;;;;;;;28.88;3.25;;;;;;;25.66;54.84;99170.81;7308507;19;128999;-36
2022/05/21 00:46:38;;;;;;;25.97;3.17;;;;;;;25.63;54.46;99173.00;7307112;19;130492;-38
2022/05/21 00:49:13;;;;;;;23.27;2.40;;;;;;;25.64;54.65;99180.72;7310774;19;130289;-37
2022/05/21 00:52:07;;;;;;;30.60;3.38;;;;;;;25.72;54.42;99187.72;7315373;19;132663;-37
2022/05/21 00:54:36;;;;;;;24.42;2.65;;;;;;;25.70;54.18;99198.44;7316556;19;129227;-37
2022/05/21 00:57:17;;;;;;;20.83;2.28;;;;;;;25.67;55.15;99204.06;7314162;19;129504;-38
2022/05/21 00:59:47;;;;;;;25.65;2.95;;;;;;;25.64;53.92;99212.31;7316626;19;131010;-38
2022/05/21 01:02:16;;;;;;;30.17;3.42;;;;;;;25.55;54.62;99199.38;7313834;19;131431;-38
2022/05/21 01:04:44;;;;;;;26.08;3.10;;;;;;;25.65;54.61;99215.75;7314150;19;130078;-41
2022/05/21 01:07:09;;;;;;;25.77;2.90;;;;;;;25.64;53.44;99224.63;7315260;19;129190;-40
2022/05/21 01:09:40;;;;;;;31.40;3.40;;;;;;;25.62;54.36;99231.88;7315623;19;129577;-38
2022/05/21 01:12:08;;;;;;;35.03;3.72;;;;;;;25.65;54.62;99236.84;7316384;19;130531;-39
2022/05/21 01:14:34;;;;;;;17.88;2.30;;;;;;;25.67;54.83;99245.34;7314555;19;129006;-40
2022/05/21 01:17:00;;;;;;;33.30;3.90;;;;;;;25.62;54.11;99263.47;7313235;19;129273;-39
2022/05/21 01:19:25;;;;;;;17.70;2.30;;;;;;;25.62;54.62;99266.94;7315805;19;129624;-37
2022/05/21 01:21:50;;;;;;;24.20;2.57;;;;;;;25.62;54.74;99264.31;7313935;19;130469;-38
2022/05/21 01:24:16;;;;;;;21.70;2.47;;;;;;;25.63;54.07;99270.41;7312946;19;154584;-38
2022/05/21 01:26:41;;;;;;;26.27;2.90;;;;;;;25.67;54.32;99282.22;7313043;19;129663;-37
2022/05/21 01:29:19;;;;;;;20.52;2.50;;;;;;;25.65;54.52;99289.50;7313078;19;151895;-38
2022/05/21 01:31:52;;;;;;;35.20;3.63;;;;;;;25.65;54.44;99286.84;7314375;19;130485;-37
2022/05/21 01:34:19;;;;;;;27.15;2.80;;;;;;;25.66;54.52;99306.91;7314383;19;129074;-37
2022/05/21 01:36:44;;;;;;;28.10;3.10;;;;;;;25.64;54.55;99308.91;7313595;19;129297;-38
2022/05/21 01:39:09;;;;;;;25.97;2.73;;;;;;;25.64;54.13;99303.63;7314691;19;129076;-38
2022/05/21 01:41:34;;;;;;;26.30;2.90;;;;;;;25.66;54.67;99306.91;7314570;19;158597;-38
2022/05/21 01:46:43;;;;;;;42.40;4.30;;;;;;;25.63;54.71;99315.97;7312934;19;130290;-42
2022/05/21 01:49:09;;;;;;;17.93;2.10;;;;;;;25.66;54.16;99327.97;7315585;19;130206;-40
2022/05/21 01:51:34;;;;;;;19.57;2.37;;;;;;;25.60;54.18;99318.16;7313433;19;134657;-35
2022/05/21 01:54:00;;;;;;;28.80;2.92;;;;;;;25.63;54.67;99337.03;7313127;19;154097;-41
2022/05/21 01:56:25;;;;;;;26.93;2.80;;;;;;;25.61;54.09;99340.84;7312398;19;129065;-41
2022/05/21 01:58:50;;;;;;;23.67;2.73;;;;;;;25.57;54.22;99339.53;7309732;19;158828;-39
2022/05/21 02:01:15;;;;;;;21.43;2.20;;;;;;;25.64;55.01;99351.03;7312995;19;129498;-38
2022/05/21 02:03:41;;;;;;;44.23;4.43;;;;;;;25.65;54.33;99360.59;7313070;19;129002;-39
2022/05/21 02:06:06;;;;;;;31.80;3.13;;;;;;;25.65;54.11;99363.22;7312302;19;129732;-38
2022/05/21 02:08:32;;;;;;;14.87;2.03;;;;;;;25.64;54.19;99356.28;7312841;19;150567;-40
2022/05/21 02:10:57;;;;;;;22.30;2.37;;;;;;;25.66;55.00;99359.59;7313457;19;129207;-40
2022/05/21 02:13:26;;;;;;;14.73;1.97;;;;;;;25.66;54.99;99364.84;7312954;19;140253;-39
2022/05/21 02:15:52;;;;;;;31.48;3.35;;;;;;;25.65;54.38;99363.22;7312422;19;129057;-38
2022/05/21 02:18:18;;;;;;;25.43;2.80;;;;;;;25.63;54.43;99367.81;7311423;19;131063;-40
2022/05/21 02:20:45;;;;;;;37.80;3.80;;;;;;;25.63;54.80;99378.34;7311892;19;130873;-39
2022/05/21 02:23:11;;;;;;;22.65;2.42;;;;;;;25.66;54.24;99378.00;7313848;19;129477;-41
2022/05/21 02:25:36;;;;;;;35.80;4.10;;;;;;;25.66;54.75;99378.84;7311993;19;129077;-38
2022/05/21 02:28:02;;;;;;;22.63;2.43;;;;;;;25.60;54.72;99376.88;7308005;19;158126;-38
2022/05/21 02:30:27;;;;;;;26.73;2.73;;;;;;;25.62;55.12;99384.59;7312950;19;129225;-39
2022/05/21 02:32:53;;;;;;;27.47;2.70;;;;;;;25.61;54.16;99388.22;7312319;19;129322;-37
2022/05/21 02:35:18;;;;;;;38.90;3.83;;;;;;;25.65;54.34;99384.28;7309860;19;149126;-37
2022/05/21 02:40:28;;;;;;;24.80;2.65;;;;;;;25.62;55.04;99392.50;7313081;19;129428;-40
2022/05/21 02:42:55;;;;;;;23.67;2.50;;;;;;;25.64;53.93;99395.78;7312913;19;129495;-38
2022/05/21 02:45:23;;;;;;;39.72;4.15;;;;;;;25.61;55.14;99399.59;7311303;19;131441;-39
2022/05/21 02:47:49;;;;;;;25.65;2.67;;;;;;;25.62;55.05;99403.03;7310724;19;130155;-41
2022/05/21 02:50:20;;;;;;;17.23;2.08;;;;;;;25.65;54.44;99405.34;7312349;19;130354;-36
2022/05/21 02:52:45;;;;;;;33.72;3.35;;;;;;;25.64;54.15;99408.94;7313679;19;131777;-38
2022/05/21 02:55:13;;;;;;;26.03;2.57;;;;;;;25.60;54.38;99407.66;7311189;19;130027;-38
2022/05/21 02:57:38;;;;;;;29.67;2.90;;;;;;;25.64;55.00;99406.31;7309798;19;129517;-39
2022/05/21 03:00:19;;;;;;;19.90;2.27;;;;;;;25.63;54.39;99417.84;7311567;19;129434;-38
2022/05/21 03:02:45;;;;;;;25.52;2.58;;;;;;;25.63;54.41;99413.38;7312947;19;129221;-40
2022/05/21 03:05:11;;;;;;;36.77;3.60;;;;;;;25.64;54.30;99416.84;7312080;19;129292;-39
2022/05/21 03:07:42;;;;;;;22.73;2.53;;;;;;;25.62;55.19;99424.09;7307520;19;129122;-39
2022/05/21 03:10:20;;;;;;;27.73;2.85;;;;;;;25.58;54.43;99414.91;7313186;19;129206;-38
2022/05/21 03:12:46;;;;;;;28.38;2.92;;;;;;;25.59;54.99;99432.34;7310838;19;129112;-37
2022/05/21 03:15:11;;;;;;;33.23;3.33;;;;;;;25.60;54.66;99426.09;7312163;19;129418;-37
2022/05/21 03:17:36;;;;;;;35.33;3.33;;;;;;;25.61;54.92;99430.38;7306796;19;158441;-40
2022/05/21 03:20:03;;;;;;;39.27;3.80;;;;;;;25.62;54.63;99424.09;7306769;19;158440;-39
2022/05/21 03:22:29;;;;;;;28.98;2.67;;;;;;;25.59;54.65;99432.34;7309562;19;129907;-36
2022/05/21 03:24:54;;;;;;;20.83;2.00;;;;;;;25.61;54.56;99436.47;7311801;19;129769;-39
2022/05/21 03:27:20;;;;;;;26.23;2.70;;;;;;;25.60;54.35;99428.72;7309400;19;129695;-38
2022/05/21 03:29:45;;;;;;;22.73;2.33;;;;;;;25.59;53.71;99437.59;7312051;19;130249;-40
2022/05/21 03:32:10;;;;;;;30.00;2.85;;;;;;;25.59;54.13;99435.78;7309122;19;145268;-39
2022/05/21 03:34:36;;;;;;;31.87;3.17;;;;;;;25.55;54.25;99431.84;7306655;19;155727;-40
2022/05/21 03:37:02;;;;;;;21.53;1.97;;;;;;;25.61;54.76;99440.91;7308644;19;129115;-39
2022/05/21 03:39:28;;;;;;;32.17;3.03;;;;;;;25.60;54.51;99455.84;7310750;19;131892;-38
2022/05/21 03:41:54;;;;;;;23.05;2.15;;;;;;;25.61;54.51;99451.44;7312331;19;129273;-38
2022/05/21 03:44:20;;;;;;;29.55;2.85;;;;;;;25.62;54.75;99460.97;7309852;19;129224;-40
2022/05/21 03:46:45;;;;;;;26.80;2.70;;;;;;;25.62;55.28;99463.59;7308880;19;129447;-38
2022/05/21 03:49:10;;;;;;;39.47;3.93;;;;;;;25.59;54.86;99462.13;7309892;19;130106;-36
2022/05/21 03:51:37;;;;;;;16.67;1.97;;;;;;;25.60;55.16;99478.75;7307869;19;154529;-41
2022/05/21 03:54:03;;;;;;;20.63;2.13;;;;;;;25.61;54.56;99475.94;7311111;19;129257;-39
2022/05/21 03:56:28;;;;;;;15.43;1.67;;;;;;;25.57;54.36;99477.25;7308275;19;129407;-40
2022/05/21 03:58:54;;;;;;;16.83;1.73;;;;;;;25.60;54.67;99474.28;7309021;19;129417;-37
2022/05/21 04:01:19;;;;;;;26.50;2.57;;;;;;;25.60;54.80;99491.91;7307202;19;155215;-37
2022/05/21 04:03:44;;;;;;;25.57;2.70;;;;;;;25.61;55.05;99509.34;7308717;19;154254;-39
2022/05/21 04:06:11;;;;;;;28.70;2.77;;;;;;;25.60;55.12;99497.19;7309820;19;130334;-37
2022/05/21 04:08:37;;;;;;;26.20;2.72;;;;;;;25.59;54.39;99500.78;7310209;19;130893;-37
2022/05/21 04:11:02;;;;;;;25.77;2.65;;;;;;;25.60;53.93;99513.00;7308284;19;129457;-36
2022/05/21 04:13:28;;;;;;;29.73;3.03;;;;;;;25.51;54.09;99499.00;7310488;19;129144;-39
2022/05/21 04:15:53;;;;;;;22.03;2.20;;;;;;;25.59;54.76;99520.06;7308220;19;129520;-37
2022/05/21 04:18:19;;;;;;;23.52;2.72;;;;;;;25.52;54.85;99505.06;7306387;19;158429;-40
2022/05/21 04:20:45;;;;;;;45.40;4.23;;;;;;;25.57;54.40;99526.47;7307019;19;130605;-40
2022/05/21 04:23:11;;;;;;;29.50;2.73;;;;;;;25.57;54.13;99531.72;7308227;19;130727;-42
2022/05/21 04:25:36;;;;;;;14.07;1.70;;;;;;;25.57;54.25;99539.63;7311470;19;130699;-37
2022/05/21 04:28:02;;;;;;;33.60;3.20;;;;;;;25.58;54.90;99536.03;7310638;19;159453;-37
2022/05/21 04:30:29;;;;;;;19.40;1.88;;;;;;;25.58;54.42;99536.03;7318134;19;130789;-38
2022/05/21 04:32:58;;;;;;;30.02;2.95;;;;;;;25.46;54.93;99522.38;7315205;19;129417;-38
2022/05/21 04:35:25;;;;;;;35.20;3.55;;;;;;;25.48;53.88;99538.84;7315159;19;129547;-38
2022/05/21 04:37:51;;;;;;;22.70;2.38;;;;;;;25.57;55.23;99555.41;7314288;19;131025;-37
2022/05/21 04:40:22;;;;;;;25.08;2.63;;;;;;;25.54;54.67;99553.97;7315353;19;154774;-39
2022/05/21 04:42:48;;;;;;;32.42;3.15;;;;;;;25.55;53.85;99558.22;7315982;19;129371;-39
2022/05/21 04:45:17;;;;;;;42.77;4.17;;;;;;;25.60;54.41;99555.13;7314628;19;129282;-38
2022/05/21 04:47:42;;;;;;;27.77;2.60;;;;;;;25.59;54.96;99563.97;7313635;19;129352;-37
2022/05/21 04:50:09;;;;;;;30.97;2.87;;;;;;;25.59;54.31;99558.72;7314112;19;154297;-40
2022/05/21 04:52:35;;;;;;;21.08;2.17;;;;;;;25.48;54.91;99556.44;7313724;19;129022;-38
2022/05/21 04:55:05;;;;;;;28.88;2.65;;;;;;;25.55;54.11;99578.47;7313938;19;130694;-38
2022/05/21 04:57:31;;;;;;;29.67;2.75;;;;;;;25.56;54.98;99574.84;7310592;19;130307;-38
2022/05/21 04:59:56;;;;;;;41.67;4.27;;;;;;;25.50;54.28;99570.25;7311227;19;155708;-40
2022/05/21 05:02:21;;;;;;;19.73;1.90;;;;;;;25.58;54.50;99588.69;7313144;19;144378;-40
2022/05/21 05:04:47;;;;;;;42.27;4.23;;;;;;;25.55;54.42;99583.75;7309221;19;158431;-38
2022/05/21 05:07:12;;;;;;;22.00;2.13;;;;;;;25.56;54.26;99595.91;7310866;19;155501;-36
2022/05/21 05:09:40;;;;;;;40.43;4.00;;;;;;;25.55;54.64;99589.81;7314103;19;128859;-37
2022/05/21 05:12:06;;;;;;;32.05;3.08;;;;;;;25.57;54.53;99587.84;7313594;19;129716;-38
2022/05/21 05:14:32;;;;;;;28.15;2.85;;;;;;;25.48;53.88;99585.38;7311410;19;129726;-37
2022/05/21 05:16:57;;;;;;;17.80;1.83;;;;;;;25.57;54.39;99608.06;7313281;19;130321;-37
2022/05/21 05:19:22;;;;;;;16.67;1.67;;;;;;;25.56;54.30;99604.66;7312168;19;154751;-39
2022/05/21 05:21:48;;;;;;;31.43;3.03;;;;;;;25.58;54.27;99612.38;7312638;19;154086;-38
2022/05/21 05:24:13;;;;;;;28.43;2.60;;;;;;;25.52;54.05;99610.38;7312713;19;159145;-38
2022/05/21 05:26:38;;;;;;;32.37;3.03;;;;;;;25.51;53.85;99614.00;7310928;19;158287;-39
2022/05/21 05:29:05;;;;;;;25.67;2.50;;;;;;;25.51;54.14;99614.00;7316007;19;129663;-37
2022/05/21 05:31:30;;;;;;;17.45;1.77;;;;;;;25.52;54.42;99615.66;7314412;19;130196;-39
2022/05/21 05:33:57;;;;;;;28.07;2.50;;;;;;;25.53;54.08;99612.03;7313740;19;140223;-38
2022/05/21 05:36:22;;;;;;;18.85;1.90;;;;;;;25.45;54.47;99604.94;7312818;19;130863;-39
2022/05/21 05:38:47;;;;;;;30.52;2.97;;;;;;;25.52;54.39;99619.09;7310330;19;147305;-39
2022/05/21 05:41:12;;;;;;;24.50;2.53;;;;;;;25.53;54.25;99620.78;7312906;19;148114;-37
2022/05/21 05:43:38;;;;;;;43.87;4.10;;;;;;;25.55;54.34;99631.13;7310407;19;158414;-38
2022/05/21 05:46:03;;;;;;;34.77;3.13;;;;;;;25.54;54.81;99621.56;7309337;19;157783;-39
2022/05/21 05:48:29;;;;;;;35.13;3.17;;;;;;;25.53;54.95;99633.09;7313883;19;129792;-37
2022/05/21 05:50:56;;;;;;;30.80;2.87;;;;;;;25.51;54.22;99632.44;7313185;19;129760;-37
2022/05/21 05:53:21;;;;;;;33.65;3.17;;;;;;;25.54;54.78;99634.75;7311850;19;129771;-38
2022/05/21 05:55:48;;;;;;;34.03;3.03;;;;;;;25.50;53.83;99631.59;7311162;19;130156;-38
2022/05/21 06:00:58;;;;;;;19.50;1.88;;;;;;;25.54;55.00;99632.09;7315503;19;129625;-37
2022/05/21 06:03:23;;;;;;;26.90;2.53;;;;;;;25.56;54.85;99635.41;7311078;19;158966;-38
2022/05/21 06:05:52;;;;;;;27.30;2.53;;;;;;;25.53;54.19;99633.09;7312227;19;129880;-39
2022/05/21 06:08:19;;;;;;;18.60;1.83;;;;;;;25.55;54.32;99634.56;7315086;19;129346;-38
2022/05/21 06:10:45;;;;;;;48.17;4.65;;;;;;;25.53;54.64;99638.38;7313864;19;129435;-39
2022/05/21 06:13:12;;;;;;;42.13;3.95;;;;;;;25.52;54.63;99637.53;7312499;19;130291;-39
2022/05/21 06:15:38;;;;;;;29.02;2.65;;;;;;;25.53;55.13;99638.38;7311576;19;129325;-42
2022/05/21 06:18:09;;;;;;;27.33;2.58;;;;;;;25.54;54.72;99640.00;7310114;19;129639;-37
2022/05/21 06:20:35;;;;;;;37.65;3.30;;;;;;;25.54;54.54;99640.00;7310854;19;129699;-37
2022/05/21 06:23:00;;;;;;;17.67;1.63;;;;;;;25.53;54.70;99641.00;7312440;19;129376;-37
2022/05/21 06:25:29;;;;;;;40.77;4.47;;;;;;;25.52;54.74;99647.25;7310442;19;159906;-40
2022/05/21 06:27:54;;;;;;;26.08;2.53;;;;;;;25.49;55.00;99645.78;7311142;19;129085;-41
2022/05/21 06:30:23;;;;;;;20.87;2.03;;;;;;;25.50;55.26;99644.78;7312499;19;129736;-39
2022/05/21 06:32:48;;;;;;;22.90;2.25;;;;;;;25.50;54.33;99643.97;7311620;19;129040;-38
2022/05/21 06:35:15;;;;;;;35.07;3.17;;;;;;;25.49;53.92;99655.47;7312341;19;130968;-40
2022/05/21 06:37:41;;;;;;;35.13;3.28;;;;;;;25.57;54.64;99655.47;7306580;19;129507;-38
2022/05/21 06:40:08;;;;;;;37.33;3.73;;;;;;;25.56;54.13;99657.31;7310359;19;129313;-39
2022/05/21 06:42:34;;;;;;;27.63;2.30;;;;;;;25.57;55.08;99666.00;7311909;19;130758;-39
2022/05/21 06:44:59;;;;;;;39.67;3.67;;;;;;;25.57;53.54;99666.00;7308698;19;131708;-39
2022/05/21 06:47:25;;;;;;;21.03;2.10;;;;;;;25.52;54.26;99641.97;7307336;19;152262;-39
2022/05/21 06:49:55;;;;;;;35.60;3.13;;;;;;;25.57;54.39;99666.00;7312025;19;129671;-39
2022/05/21 06:52:24;;;;;;;30.38;3.08;;;;;;;25.61;54.88;99673.44;7313035;19;130238;-40
2022/05/21 06:54:50;;;;;;;34.13;3.55;;;;;;;25.59;53.79;99669.31;7309918;19;131214;-38
2022/05/21 06:57:15;;;;;;;42.73;3.87;;;;;;;25.60;54.35;99660.44;7305794;19;130311;-40
2022/05/21 06:59:41;;;;;;;61.87;5.87;;;;;;;25.64;54.58;99682.81;7308511;19;129144;-37
2022/05/21 07:02:06;;;;;;;36.60;3.27;;;;;;;25.61;53.99;99673.44;7298262;19;130686;-40
2022/05/21 07:10:06;;;;;;;38.50;3.75;;;;;;;25.63;54.33;99679.34;7311801;19;129548;-40
2022/05/21 07:12:33;;;;;;;24.30;2.47;;;;;;;25.68;54.23;99674.41;7308724;19;130184;-40
2022/05/21 07:14:58;;;;;;;33.00;2.85;;;;;;;25.73;54.57;99681.84;7310244;19;129621;-39
2022/05/21 07:17:23;;;;;;;37.07;3.97;;;;;;;25.70;54.91;99682.97;7308733;19;130954;-40
2022/05/21 07:19:49;;;;;;;25.40;2.57;;;;;;;25.68;53.85;99678.88;7306294;19;129097;-40
2022/05/21 07:22:14;;;;;;;21.20;2.73;;;;;;;25.69;54.18;99680.50;7310881;19;159008;-41
2022/05/21 07:24:42;;;;;;;36.10;3.07;;;;;;;25.69;54.20;99693.66;7309260;19;129300;-38
2022/05/21 07:27:07;;;;;;;19.88;2.35;;;;;;;25.67;54.51;99687.72;7308731;19;129865;-39
2022/05/21 07:29:35;;;;;;;28.67;2.77;;;;;;;25.66;54.36;99692.19;7311861;19;129609;-37
2022/05/21 07:32:00;;;;;;;34.55;3.13;;;;;;;25.67;54.40;99698.28;7312001;19;130210;-38
2022/05/21 07:34:27;;;;;;;27.90;2.57;;;;;;;25.67;53.77;99696.47;7311003;19;159317;-38
2022/05/21 07:36:52;;;;;;;16.65;1.75;;;;;;;25.76;54.76;99697.31;7307854;19;129102;-40
2022/05/21 07:39:17;;;;;;;21.60;1.93;;;;;;;25.72;55.06;99690.69;7309262;19;147949;-39
2022/05/21 07:41:42;;;;;;;34.97;3.37;;;;;;;25.73;53.99;99701.06;7310668;19;129236;-41
2022/05/21 07:44:08;;;;;;;26.63;2.60;;;;;;;25.73;54.65;99693.16;7309898;19;158699;-40
2022/05/21 07:46:33;;;;;;;36.60;3.37;;;;;;;25.64;55.02;99680.16;7308644;19;154519;-39
2022/05/21 07:48:58;;;;;;;16.73;1.83;;;;;;;25.71;54.58;99689.06;7310899;19;151518;-40
2022/05/21 07:51:23;;;;;;;12.87;1.37;;;;;;;25.76;53.33;99696.47;7309702;19;159023;-39
2022/05/21 07:53:49;;;;;;;29.33;2.80;;;;;;;25.79;53.47;99696.13;7308689;19;158442;-40
2022/05/21 07:56:14;;;;;;;25.17;2.53;;;;;;;25.77;53.79;99687.59;7308939;19;154574;-39
2022/05/21 07:58:40;;;;;;;24.00;2.13;;;;;;;25.77;54.09;99677.88;7308211;19;154893;-41
2022/05/21 08:01:05;;;;;;;30.73;2.85;;;;;;;25.72;53.36;99680.16;7311077;19;129487;-41
2022/05/21 08:03:31;;;;;;;32.63;2.73;;;;;;;25.81;53.69;99684.47;7311338;19;130722;-38
2022/05/21 08:05:56;;;;;;;13.60;1.40;;;;;;;25.84;53.62;99684.13;7310194;19;129074;-39
2022/05/21 08:08:23;;;;;;;21.30;2.03;;;;;;;25.80;54.49;99688.06;7310216;19;154241;-40
2022/05/21 08:10:48;;;;;;;32.85;3.05;;;;;;;25.76;55.26;99681.50;7310540;19;129496;-37
2022/05/21 08:13:16;;;;;;;19.83;1.93;;;;;;;25.79;54.90;99689.06;7311286;19;130296;-39
2022/05/21 08:15:42;;;;;;;28.35;2.78;;;;;;;25.78;53.92;99679.53;7310008;19;128752;-37
2022/05/21 08:18:07;;;;;;;23.47;2.13;;;;;;;25.72;54.19;99685.44;7308628;19;129337;-40
2022/05/21 08:20:34;;;;;;;21.73;2.00;;;;;;;25.81;53.40;99684.47;7310151;19;130060;-41
2022/05/21 08:28:27;;;;;;;29.55;2.60;;;;;;;25.76;54.11;99681.50;7311335;19;129470;-39
2022/05/21 08:30:53;;;;;;;21.47;2.10;;;;;;;25.78;54.03;99682.16;7310331;19;129183;-38
2022/05/21 08:33:22;;;;;;;15.60;1.47;;;;;;;25.81;53.42;99683.63;7307744;19;158731;-40
2022/05/21 08:35:47;;;;;;;26.00;2.50;;;;;;;25.74;53.05;99683.47;7309074;19;130874;-38
2022/05/21 08:38:13;;;;;;;31.20;2.73;;;;;;;25.75;52.88;99679.84;7310237;19;129638;-40
2022/05/21 08:40:55;;;;;;;23.00;2.30;;;;;;;25.80;54.71;99672.25;7309450;19;131001;-39
2022/05/21 08:43:25;;;;;;;17.52;1.70;;;;;;;25.76;53.67;99684.13;7310801;19;131974;-40
2022/05/21 08:46:04;;;;;;;26.02;2.45;;;;;;;25.78;54.30;99679.53;7310418;19;129179;-39
2022/05/21 08:48:32;;;;;;;33.60;2.78;;;;;;;25.78;52.93;99676.91;7311436;19;129625;-39
2022/05/21 08:50:58;;;;;;;24.55;2.47;;;;;;;25.80;53.04;99667.00;7308768;19;130141;-40
2022/05/21 08:53:26;;;;;;;22.52;2.33;;;;;;;25.78;53.48;99679.53;7309053;19;129567;-37
2022/05/21 08:55:55;;;;;;;36.53;3.38;;;;;;;25.76;53.10;99675.41;7309535;19;130166;-37
2022/05/21 08:58:31;;;;;;;29.58;2.88;;;;;;;25.79;54.84;99665.38;7307353;19;129607;-41
2022/05/21 09:00:57;;;;;;;27.70;2.75;;;;;;;25.76;53.61;99670.97;7309833;19;131946;-40
2022/05/21 09:03:24;;;;;;;24.63;2.40;;;;;;;25.77;53.04;99666.53;7308679;19;129134;-40
2022/05/21 09:06:08;;;;;;;24.63;2.33;;;;;;;25.77;54.03;99667.34;7309115;19;129399;-39
2022/05/21 09:08:48;;;;;;;18.75;1.83;;;;;;;25.81;54.57;99667.81;7309587;19;130717;-39
2022/05/21 09:11:22;;;;;;;34.10;3.05;;;;;;;25.81;53.79;99668.66;7312874;19;129506;-38
2022/05/21 09:14:00;;;;;;;22.83;2.35;;;;;;;25.81;53.94;99671.28;7316167;19;130798;-39
2022/05/21 09:19:39;;;;;;;13.90;1.67;;;;;;;25.79;54.66;99660.09;7310614;19;129823;-40
2022/05/21 09:22:07;;;;;;;32.38;2.80;;;;;;;25.79;53.67;99657.47;7310935;19;129237;-39
2022/05/21 09:24:59;;;;;;;42.22;3.85;;;;;;;25.87;54.11;99661.88;7313229;19;130338;-38
2022/05/21 09:27:42;;;;;;;19.52;1.85;;;;;;;25.79;54.56;99660.09;7313415;19;128935;-40
2022/05/21 09:30:20;;;;;;;28.90;2.80;;;;;;;25.82;54.57;99659.75;7315982;19;129042;-41
2022/05/21 09:32:49;;;;;;;34.03;3.47;;;;;;;25.82;53.36;99658.97;7313852;19;158974;-39
2022/05/21 09:35:23;;;;;;;21.70;2.47;;;;;;;25.77;54.68;99651.53;7315973;19;131026;-39
2022/05/21 09:37:49;;;;;;;42.72;3.85;;;;;;;25.81;54.53;99662.56;7311455;19;129812;-40
2022/05/21 09:40:35;;;;;;;20.93;2.27;;;;;;;25.80;55.15;99651.19;7312299;19;129785;-39
2022/05/21 09:45:52;;;;;;;12.65;1.30;;;;;;;25.77;53.60;99659.44;7312495;19;129465;-40
2022/05/21 09:48:21;;;;;;;17.43;1.63;;;;;;;25.81;54.03;99666.03;7313652;19;154879;-40
2022/05/21 09:50:56;;;;;;;30.05;2.92;;;;;;;25.81;54.63;99662.56;7314337;19;129232;-38
2022/05/21 09:53:36;;;;;;;14.50;1.55;;;;;;;25.83;54.93;99652.69;7314205;19;129185;-38
2022/05/21 09:56:06;;;;;;;22.90;2.13;;;;;;;25.82;54.11;99653.69;7311521;19;129956;-39
2022/05/21 09:58:38;;;;;;;19.70;1.80;;;;;;;25.87;53.82;99652.19;7314456;19;140689;-41
2022/05/21 10:01:05;;;;;;;23.20;2.20;;;;;;;25.90;52.44;99651.03;7315090;19;129163;-40
2022/05/21 10:03:35;;;;;;;19.20;1.80;;;;;;;25.83;54.53;99656.16;7314467;19;129879;-39
2022/05/21 10:06:06;;;;;;;28.02;2.35;;;;;;;25.76;54.06;99647.25;7313479;19;136963;-39
2022/05/21 10:11:41;;;;;;;27.85;2.70;;;;;;;25.80;53.73;99640.66;7314105;19;130117;-40
2022/05/21 10:14:32;;;;;;;12.10;1.38;;;;;;;25.77;53.96;99654.16;7313787;19;129533;-40
2022/05/21 10:17:00;;;;;;;22.23;2.22;;;;;;;25.77;53.24;99641.00;7312198;19;130332;-41
2022/05/21 10:19:40;;;;;;;19.98;2.13;;;;;;;25.72;53.76;99643.31;7313726;19;129172;-40
2022/05/21 10:22:23;;;;;;;29.67;2.78;;;;;;;25.73;54.07;99637.88;7311995;19;129497;-39
2022/05/21 10:25:03;;;;;;;37.83;3.92;;;;;;;25.75;54.10;99642.97;7312663;19;129256;-38
2022/05/21 10:27:37;;;;;;;15.93;1.70;;;;;;;25.77;54.27;99640.19;7312485;19;129323;-41
2022/05/21 10:30:13;;;;;;;27.15;2.45;;;;;;;25.79;54.44;99632.94;7312706;19;129109;-39
2022/05/21 10:32:49;;;;;;;26.92;2.70;;;;;;;25.72;53.83;99622.22;7314160;19;131343;-39
2022/05/21 10:35:42;;;;;;;34.28;3.25;;;;;;;25.85;54.45;99622.53;7313780;19;129285;-39
2022/05/21 10:38:31;;;;;;;12.35;1.80;;;;;;;25.80;54.11;99650.38;7311250;19;129382;-41
2022/05/21 10:41:26;;;;;;;23.92;2.22;;;;;;;25.65;53.52;99621.28;7314622;19;129355;-40
2022/05/21 10:44:09;;;;;;;28.23;2.75;;;;;;;25.76;54.38;99644.63;7309978;19;129252;-39
2022/05/21 10:46:52;;;;;;;20.15;1.98;;;;;;;25.74;54.53;99641.31;7312021;19;129194;-38
2022/05/21 10:49:44;;;;;;;26.25;2.53;;;;;;;25.81;54.19;99644.97;7311228;19;159273;-38
2022/05/21 10:52:50;;;;;;;38.47;3.78;;;;;;;25.79;54.74;99628.50;7312119;19;130732;-37
2022/05/21 10:55:22;;;;;;;27.70;2.70;;;;;;;25.71;53.87;99631.13;7311303;19;129991;-38
2022/05/21 10:57:47;;;;;;;32.72;3.08;;;;;;;25.75;53.50;99637.69;7309555;19;129148;-40
2022/05/21 11:00:21;;;;;;;49.30;4.20;;;;;;;25.70;54.83;99640.03;7306028;19;158642;-40
2022/05/21 11:03:03;;;;;;;44.38;4.40;;;;;;;25.67;53.95;99629.81;7308049;19;130163;-37
2022/05/21 11:06:10;;;;;;;58.13;4.93;;;;;;;25.66;54.03;99623.72;7311512;19;129099;-41
2022/05/21 11:09:02;;;;;;;47.15;4.15;;;;;;;25.68;54.92;99639.38;7311282;19;129269;-38
2022/05/21 11:11:42;;;;;;;25.27;2.55;;;;;;;25.61;54.89;99644.47;7312940;19;130305;-37
2022/05/21 11:14:14;;;;;;;28.30;2.67;;;;;;;25.62;54.94;99653.16;7309274;19;129159;-38
2022/05/21 11:16:51;;;;;;;34.63;3.25;;;;;;;25.62;54.58;99638.19;7309317;19;129093;-44
2022/05/21 11:19:49;;;;;;;36.70;3.30;;;;;;;25.63;54.41;99637.19;7309430;19;130236;-40
2022/05/21 11:22:25;;;;;;;22.27;2.30;;;;;;;25.57;55.32;99642.31;7309557;19;129500;-40
2022/05/21 11:25:03;;;;;;;23.80;2.23;;;;;;;25.58;54.69;99625.53;7310847;19;131010;-38
2022/05/21 11:27:37;;;;;;;31.40;3.30;;;;;;;25.61;54.75;99627.84;7307133;19;128997;-41
2022/05/21 11:30:08;;;;;;;31.80;3.15;;;;;;;25.57;55.06;99623.88;7310314;19;132273;-38
2022/05/21 11:38:51;;;;;;;26.88;2.50;;;;;;;25.60;55.10;99649.91;7311894;19;129318;-38
2022/05/21 11:41:25;;;;;;;25.20;2.55;;;;;;;25.53;54.88;99633.94;7310195;19;129785;-41
2022/05/21 11:43:58;;;;;;;14.38;1.63;;;;;;;25.44;54.91;99619.13;7310152;19;131210;-40
2022/05/21 11:46:37;;;;;;;31.38;2.92;;;;;;;25.49;53.98;99643.13;7308440;19;154608;-39
2022/05/21 11:49:31;;;;;;;26.92;2.45;;;;;;;25.49;54.67;99640.50;7311471;19;129355;-38
2022/05/21 11:51:59;;;;;;;32.95;3.17;;;;;;;25.42;53.85;99625.53;7311995;19;129773;-40
2022/05/21 11:54:47;;;;;;;7.88;1.20;;;;;;;25.53;55.19;99639.22;7311115;19;132164;-40
2022/05/21 11:57:32;;;;;;;26.42;2.63;;;;;;;25.52;54.68;99631.44;7310853;19;129134;-40
2022/05/21 11:59:59;;;;;;;30.50;2.95;;;;;;;25.46;54.41;99650.53;7309397;19;129316;-39